Rhinelander Oneida County Airport Rhinelander US
ICAO: KRHI
IATA: RHI
Category: Medium
Scheduled Services: Yes

Elevation: 1624 ft
TransAlt. 18000 ft.

Airport Communications:
ASOS:126.825
MINNEAPOLIS CNTR:133.65
GREEN BAY RDO:109.2
CTAF/UNICOM:123

KRHI Zoom In..

If you have problems with the map follow the link
https://www.worldairports.se/pages/airport.php?
ICAO=KRHI

Runways:

(A) RW 09 length 6799 ft width 150 ft
ILS 111.30 / hdg 91

(B) RW 15 length 5201 ft width 100 ft
---- / hdg 150

(C) RW 27 length 6799 ft width 150 ft
---- / hdg 271

(D) RW 33 length 5201 ft width 100 ft
---- / hdg 330

Location; KRHI
Day. 26 / Time. 00.04 Zulu
* Altimeter: 29.80
* Temperature: -01° c. -30.2°f.
* Wind from: 310° Speed 03 kn.
Dewpoint: -02° c.
Visibility: 3 Statute Miles.
Clouds: Broken 900 ft.
Clouds: Overcast 3200 ft.
Conditions: Light Snow.Conditions: Mist.

KRHI 260004Z AUTO 31003KT 3SM -SN BR BKN009 OVC032 M01/M02 A2980 RMK AO2 P0000 T10061022


Wind From 310°
Speed 03 kn.

 
 
jpsmedia worldairports.se 2020   terms of use